Wooster, OH

2:10 AM EDT on March 25, 2017 (GMT -0400)
Erik and Tati's Casa | | Change Station

Elev 1053 ft 40.81 °N, 81.93 °W | Updated 9 seconds ago

Partly Cloudy
Partly Cloudy
62.4 °F
Feels Like 62.4 °F
N
0.0
Wind Variable Wind from SSW

Today
High -- | Low -- °F
--% Chance of Precip.
Yesterday
High -- | Low -- °F
Precip. -- in
Pressure 30.08 in
Visibility 10.0 miles
Clouds Clear
Dew Point 51 °F
Humidity 66%
Rainfall 0.00 in
Snow Depth Not available.
7:22 AM 7:45 PM
Waning Crescent, 10% visible
METAR KBJJ 250556Z AUTO 24009KT 10SM CLR 17/11 A3009 RMK AO2 SLP184 T01670106 10194 20167 56005
Pressure 30.08 in
Visibility 10.0 miles
Clouds Clear
Dew Point 51 °F
Humidity 66%
Rainfall 0.00 in
Snow Depth Not available.
7:22 AM 7:45 PM
Waning Crescent, 10% visible
METAR KBJJ 250556Z AUTO 24009KT 10SM CLR 17/11 A3009 RMK AO2 SLP184 T01670106 10194 20167 56005

Get Severe Weather Alerts

Thanks for signing up!

Be on the lookout for a verification email in your inbox.

You'll start receiving the daily forecast at 8 AM.

×

10-Day Weather Forecast

Almanac

Astronomy

Mar. 25, 2017 Rise Set
Actual Time
Civil Twilight
Nautical Twilight
Astronomical Twilight
Moon
Length of Visible Light
Length of Day
Tomorrow will be .
, % of the Moon is Illuminated

Today's Extremes

State Highs State Lows

Community

WunderPhotos

Upload Photos

1,962,540 photos uploaded!

WunderBlog® & News

Nearby

Air Quality

  Air Quality AQ Index Pollutant
Not available.

Snow Depth

Station Depth Elevation

Earthquake Activity

City Distance Mag. Time & Date
Minimum magnitude displayed is 2.5.

Earthquake Activity

City Distance Mag. Time & Date
Minimum magnitude displayed is 2.5.

Coastal Water Temperatures

Place Temperature

Stations

Nearby Weather Stations

Station Location Temp. Windchill Dew Point Humidity Wind Precip. Elev Updated Type
                   

Watches & Warnings

There are currently no watches in effect.